Time;durP1;ratioP1;P1;durP2;ratioP2;P2;SDS_P1;SDS_P2;PMS_P1;PMS_P2;Temp;Humidity;BMP_temperature;BMP_pressure;BME280_temperature;BME280_humidity;BME280_pressure;Samples;Min_cycle;Max_cycle;Signal;HPM_P1;HPM_P2
2022/04/28 00:00:59;;;;;;;1.17;0.50;;;;;;;8.84;52.36;101958.97;2056942;28;20285;-68
2022/04/28 00:02:04;;;;;;;2.15;0.60;;;;;;;8.81;52.46;101957.56;2056560;28;20302;-69
2022/04/28 00:03:10;;;;;;;1.98;0.50;;;;;;;8.74;52.45;101958.72;2063959;28;20308;-69
2022/04/28 00:04:13;;;;;;;4.47;0.70;;;;;;;8.74;52.83;101954.19;2063057;28;20368;-69
2022/04/28 00:05:15;;;;;;;2.15;0.70;;;;;;;8.79;53.01;101954.28;2056943;28;20294;-68
2022/04/28 00:06:20;;;;;;;1.90;0.43;;;;;;;8.87;52.66;101957.69;2057363;28;20305;-68
2022/04/28 00:07:28;;;;;;;0.50;0.50;;;;;;;8.92;52.39;101955.09;2056565;28;20971;-69
2022/04/28 00:08:32;;;;;;;3.65;0.47;;;;;;;8.94;52.51;101955.69;2053911;28;20282;-69
2022/04/28 00:09:34;;;;;;;2.05;0.57;;;;;;;8.94;52.87;101959.19;2044983;28;20646;-69
2022/04/28 00:10:43;;;;;;;3.95;0.60;;;;;;;8.95;52.59;101955.47;2049280;28;21091;-69
2022/04/28 00:11:51;;;;;;;4.05;0.60;;;;;;;8.94;52.76;101956.50;2063710;28;20285;-68
2022/04/28 00:12:53;;;;;;;1.33;0.60;;;;;;;8.92;52.58;101952.41;2049072;28;20341;-69
2022/04/28 00:13:54;;;;;;;2.53;0.60;;;;;;;8.96;52.41;101954.41;2049748;28;20295;-69
2022/04/28 00:14:59;;;;;;;1.23;0.50;;;;;;;8.97;52.26;101949.88;2041292;28;20666;-68
2022/04/28 00:16:01;;;;;;;1.33;0.63;;;;;;;9.00;52.30;101958.25;2042640;28;20370;-68
2022/04/28 00:17:05;;;;;;;3.30;1.27;;;;;;;8.98;51.51;101949.63;2049334;28;20294;-68
2022/04/28 00:18:07;;;;;;;0.95;0.45;;;;;;;8.99;52.02;101953.94;2057516;28;20317;-68
2022/04/28 00:19:09;;;;;;;3.90;0.70;;;;;;;8.95;51.35;101950.13;2057699;28;20801;-68
2022/04/28 00:20:16;;;;;;;2.45;0.50;;;;;;;8.93;51.72;101949.53;2050936;28;20283;-68
2022/04/28 00:21:18;;;;;;;1.33;0.50;;;;;;;8.90;51.80;101947.31;2051025;28;20662;-68
2022/04/28 00:22:25;;;;;;;2.35;0.50;;;;;;;8.95;51.86;101946.59;2051795;28;20309;-68
2022/04/28 00:23:30;;;;;;;1.90;0.50;;;;;;;8.98;52.14;101949.63;2056782;28;20708;-68
2022/04/28 00:24:33;;;;;;;2.83;0.60;;;;;;;9.00;51.56;101952.91;2058759;28;20321;-68
2022/04/28 00:25:40;;;;;;;1.25;0.47;;;;;;;8.96;51.42;101949.06;2059203;28;20290;-68
2022/04/28 00:26:45;;;;;;;2.83;0.55;;;;;;;8.79;51.37;101950.78;2067067;28;20289;-68
2022/04/28 00:27:47;;;;;;;3.58;1.23;;;;;;;8.73;51.56;101946.34;2059110;28;20293;-67
2022/04/28 00:28:51;;;;;;;2.10;0.50;;;;;;;8.76;51.20;101945.88;2058224;28;20305;-68
2022/04/28 00:29:56;;;;;;;5.68;0.88;;;;;;;8.77;51.39;101944.84;2059135;28;20293;-70
2022/04/28 00:31:00;;;;;;;3.15;0.93;;;;;;;8.70;51.44;101939.59;2063675;28;20297;-68
2022/04/28 00:32:09;;;;;;;1.27;0.43;;;;;;;8.64;51.47;101947.72;2047951;28;20290;-69
2022/04/28 00:33:10;;;;;;;1.92;0.40;;;;;;;8.64;51.33;101940.53;2044137;28;20362;-69
2022/04/28 00:34:15;;;;;;;1.88;0.55;;;;;;;8.69;51.43;101945.19;2044235;28;20294;-69
2022/04/28 00:35:21;;;;;;;0.93;0.50;;;;;;;8.65;51.16;101936.78;2045949;28;20286;-69
2022/04/28 00:36:24;;;;;;;2.28;0.57;;;;;;;8.64;51.11;101937.84;2044688;28;20291;-69
2022/04/28 00:37:28;;;;;;;1.10;0.73;;;;;;;8.63;51.26;101935.38;2045213;28;20298;-69
2022/04/28 00:38:32;;;;;;;1.42;0.57;;;;;;;8.52;51.56;101934.34;2055505;28;20306;-68
2022/04/28 00:39:39;;;;;;;2.03;0.55;;;;;;;8.45;51.44;101939.81;2056479;28;20293;-68
2022/04/28 00:40:42;;;;;;;1.70;0.50;;;;;;;8.40;51.60;101936.97;2058995;28;20778;-68
2022/04/28 00:41:48;;;;;;;1.65;0.65;;;;;;;8.36;51.34;101941.16;2063336;28;20353;-69
2022/04/28 00:42:51;;;;;;;1.40;0.68;;;;;;;8.33;51.56;101944.28;2045683;28;20326;-68
2022/04/28 00:43:54;;;;;;;0.80;0.50;;;;;;;8.25;52.02;101944.59;2048298;28;20306;-68
2022/04/28 00:44:59;;;;;;;2.25;0.50;;;;;;;8.18;52.28;101946.56;2055152;28;20666;-68
2022/04/28 00:46:01;;;;;;;1.35;0.40;;;;;;;8.05;52.12;101944.91;2048049;28;20722;-69
2022/04/28 00:47:07;;;;;;;3.75;1.13;;;;;;;8.08;52.57;101953.28;2044044;28;20299;-68
2022/04/28 00:51:03;;;;;;;1.98;0.65;;;;;;;8.30;52.20;101950.09;2059728;28;20301;-68
2022/04/28 00:52:05;;;;;;;1.00;0.40;;;;;;;8.37;52.05;101948.13;2059847;28;20297;-68
2022/04/28 00:53:14;;;;;;;1.38;0.50;;;;;;;8.43;52.19;101951.78;2037195;29;20295;-68
2022/04/28 00:54:17;;;;;;;1.60;0.77;;;;;;;8.49;52.15;101946.31;2048910;28;20311;-68
2022/04/28 00:55:19;;;;;;;3.08;0.60;;;;;;;8.56;51.91;101941.66;2062400;28;20666;-69
2022/04/28 00:56:30;;;;;;;1.42;0.60;;;;;;;8.62;51.62;101944.47;2055364;28;20362;-68
2022/04/28 00:57:33;;;;;;;0.95;0.70;;;;;;;8.67;51.82;101948.13;2049973;28;20295;-68
2022/04/28 00:58:41;;;;;;;1.02;0.50;;;;;;;8.69;51.93;101940.63;2035997;29;20291;-68
2022/04/28 00:59:48;;;;;;;1.38;0.40;;;;;;;8.66;51.92;101946.47;2037839;28;20288;-68
2022/04/28 01:00:50;;;;;;;4.28;0.80;;;;;;;8.75;51.62;101949.63;2055764;28;20305;-68
2022/04/28 01:01:55;;;;;;;1.45;0.60;;;;;;;8.71;51.70;101943.91;2045421;29;20306;-68
2022/04/28 01:02:59;;;;;;;3.78;0.50;;;;;;;8.70;51.39;101944.97;2044286;28;20748;-68
2022/04/28 01:04:02;;;;;;;1.95;0.60;;;;;;;8.71;51.54;101953.81;2050283;28;20294;-67
2022/04/28 01:05:09;;;;;;;2.03;0.60;;;;;;;8.77;51.27;101942.97;2029917;29;20296;-68
2022/04/28 01:06:15;;;;;;;2.97;0.88;;;;;;;8.82;51.15;101944.94;2026062;29;20733;-67
2022/04/28 01:07:17;;;;;;;2.83;0.80;;;;;;;8.80;51.86;101947.06;2049037;28;20737;-67
2022/04/28 01:08:19;;;;;;;0.93;0.40;;;;;;;8.80;51.63;101955.13;2056442;28;20286;-67
2022/04/28 01:09:26;;;;;;;1.10;0.30;;;;;;;8.83;51.75;101949.28;2047564;28;20298;-67
2022/04/28 01:10:35;;;;;;;2.22;1.02;;;;;;;8.87;51.86;101944.28;2046319;28;20290;-67
2022/04/28 01:11:41;;;;;;;1.58;0.65;;;;;;;8.88;51.65;101945.91;2045490;28;20035;-67
2022/04/28 01:12:58;;;;;;;2.85;0.60;;;;;;;8.90;51.82;101943.81;2052840;28;20297;-67
2022/04/28 01:14:02;;;;;;;3.55;0.70;;;;;;;8.84;52.08;101945.56;2055484;28;20290;-67
2022/04/28 01:15:12;;;;;;;3.05;0.70;;;;;;;8.84;52.72;101942.06;2038384;29;20319;-66
2022/04/28 01:16:19;;;;;;;1.65;0.52;;;;;;;8.88;52.42;101943.22;2032149;28;20292;-67
2022/04/28 01:17:25;;;;;;;2.35;0.70;;;;;;;8.85;52.34;101939.13;2046329;28;20679;-67
2022/04/28 01:18:40;;;;;;;0.70;0.50;;;;;;;8.73;52.29;101935.63;2053619;28;20344;-67
2022/04/28 01:20:06;;;;;;;1.25;0.40;;;;;;;8.81;52.20;101943.34;2059494;28;20301;-67
2022/04/28 01:21:11;;;;;;;1.73;0.60;;;;;;;8.86;51.96;101943.47;2055467;28;20293;-67
2022/04/28 01:22:18;;;;;;;1.30;0.50;;;;;;;8.88;51.57;101933.28;2048944;28;20290;-67
2022/04/28 01:23:27;;;;;;;2.05;1.13;;;;;;;8.89;51.95;101939.47;2059696;28;20575;-67
2022/04/28 01:24:31;;;;;;;0.95;0.85;;;;;;;8.88;51.82;101933.28;2059718;28;20286;-67
2022/04/28 01:25:37;;;;;;;2.22;0.52;;;;;;;8.90;51.90;101939.25;2051726;28;20302;-67
2022/04/28 01:26:43;;;;;;;4.88;1.38;;;;;;;8.92;51.59;101936.31;2043849;28;20290;-67
2022/04/28 01:27:50;;;;;;;2.85;0.60;;;;;;;8.93;52.07;101935.28;2053668;28;20294;-67
2022/04/28 01:28:55;;;;;;;4.25;0.77;;;;;;;8.93;52.11;101941.47;2059686;28;20292;-67
2022/04/28 01:29:58;;;;;;;2.35;0.60;;;;;;;8.91;52.21;101938.19;2059293;28;20804;-67
2022/04/28 01:31:05;;;;;;;1.50;0.70;;;;;;;8.88;52.34;101938.66;2054690;28;20832;-67
2022/04/28 01:32:17;;;;;;;1.65;0.80;;;;;;;8.83;52.33;101935.88;2050817;28;20602;-67
2022/04/28 01:33:19;;;;;;;1.13;0.85;;;;;;;8.81;52.39;101941.47;2063096;28;20315;-67
2022/04/28 01:34:26;;;;;;;1.10;0.65;;;;;;;8.82;52.44;101939.59;2067246;28;21602;-67
2022/04/28 01:35:30;;;;;;;1.00;0.60;;;;;;;8.82;51.98;101944.94;2050993;28;20290;-67
2022/04/28 01:36:34;;;;;;;3.60;1.23;;;;;;;8.81;52.32;101936.09;2052496;28;20293;-67
2022/04/28 01:37:41;;;;;;;1.83;0.70;;;;;;;8.66;52.05;101933.06;2054897;28;20297;-67
2022/04/28 01:38:48;;;;;;;3.17;0.73;;;;;;;8.64;52.16;101937.00;2045306;28;20296;-67
2022/04/28 01:39:55;;;;;;;4.63;0.75;;;;;;;8.63;52.21;101932.69;2046637;28;20295;-67
2022/04/28 01:40:58;;;;;;;2.58;0.63;;;;;;;8.53;52.22;101928.72;2059493;28;20290;-67
2022/04/28 01:42:01;;;;;;;1.92;0.60;;;;;;;8.52;52.29;101929.78;2052166;28;20301;-68
2022/04/28 01:43:03;;;;;;;2.45;0.80;;;;;;;8.42;51.98;101923.34;2058683;28;20285;-67
2022/04/28 01:44:09;;;;;;;1.42;0.57;;;;;;;8.45;52.26;101928.25;2058459;28;20809;-67
2022/04/28 01:45:14;;;;;;;2.38;0.80;;;;;;;8.50;52.63;101926.50;2046902;28;20294;-67
2022/04/28 01:46:36;;;;;;;3.05;0.70;;;;;;;8.57;52.42;101924.56;2056674;28;20373;-67
2022/04/28 01:47:57;;;;;;;2.60;0.75;;;;;;;8.59;52.48;101925.13;2058371;28;20285;-67
2022/04/28 01:49:22;;;;;;;1.45;0.68;;;;;;;8.66;52.07;101921.50;2066439;28;20296;-67
2022/04/28 01:55:35;;;;;;;1.75;0.60;;;;;;;8.74;52.25;101934.59;2057656;28;20422;-66
2022/04/28 01:57:00;;;;;;;1.40;0.40;;;;;;;8.81;52.49;101936.09;2053236;28;20039;-67
2022/04/28 01:58:11;;;;;;;5.43;0.75;;;;;;;8.86;52.09;101939.94;2050138;28;20039;-67
2022/04/28 01:59:29;;;;;;;2.35;0.50;;;;;;;8.89;52.41;101942.16;2048921;28;20298;-67
2022/04/28 02:00:52;;;;;;;2.33;0.57;;;;;;;8.86;52.52;101935.41;2059315;28;20351;-67
2022/04/28 02:01:57;;;;;;;3.60;0.73;;;;;;;8.88;52.24;101938.66;2043405;28;20298;-67
2022/04/28 02:02:59;;;;;;;2.95;0.63;;;;;;;8.90;52.76;101933.88;2036857;28;20291;-67
2022/04/28 02:04:02;;;;;;;0.93;0.60;;;;;;;8.90;53.02;101931.22;2047538;28;20294;-67
2022/04/28 02:05:07;;;;;;;1.77;0.57;;;;;;;8.92;52.48;101937.16;2043462;28;20307;-68
2022/04/28 02:06:13;;;;;;;2.63;0.60;;;;;;;8.92;53.27;101939.00;2050528;28;20290;-67
2022/04/28 02:07:18;;;;;;;3.13;0.65;;;;;;;8.92;53.24;101934.47;2057629;28;20290;-67
2022/04/28 02:08:19;;;;;;;1.17;0.50;;;;;;;8.91;52.51;101934.69;2051492;28;20283;-67
2022/04/28 02:09:24;;;;;;;2.15;0.60;;;;;;;8.93;52.69;101937.97;2041941;28;20288;-67
2022/04/28 02:10:31;;;;;;;2.63;0.77;;;;;;;8.88;53.41;101935.97;2040199;28;20292;-67
2022/04/28 02:11:37;;;;;;;3.05;0.70;;;;;;;8.93;53.12;101936.09;2056058;28;20286;-67
2022/04/28 02:13:00;;;;;;;3.65;0.70;;;;;;;8.93;53.08;101943.34;2063528;28;20300;-67
2022/04/28 02:14:16;;;;;;;2.50;0.70;;;;;;;8.92;53.33;101926.44;2067427;28;20796;-67
2022/04/28 02:15:38;;;;;;;2.42;0.60;;;;;;;8.92;53.43;101937.16;2062983;28;20285;-68
2022/04/28 02:17:01;;;;;;;4.15;0.63;;;;;;;8.92;53.38;101933.63;2057874;28;20801;-67
2022/04/28 02:18:09;;;;;;;0.95;0.40;;;;;;;8.92;53.61;101939.84;2059560;28;20298;-67
2022/04/28 02:19:14;;;;;;;3.00;0.60;;;;;;;8.91;52.90;101932.84;2059071;28;20308;-67
2022/04/28 02:20:19;;;;;;;1.33;0.47;;;;;;;8.90;53.30;101936.56;2051359;28;20297;-67
2022/04/28 02:21:24;;;;;;;2.15;0.50;;;;;;;8.91;53.26;101938.19;2050708;28;20299;-67
2022/04/28 02:22:28;;;;;;;4.65;1.60;;;;;;;8.88;53.46;101938.66;2047037;28;20302;-67
2022/04/28 02:23:32;;;;;;;1.27;0.50;;;;;;;8.91;53.27;101938.19;2054655;28;20304;-67
2022/04/28 02:24:37;;;;;;;4.38;1.30;;;;;;;8.89;53.17;101936.78;2055256;28;20291;-67
2022/04/28 02:25:38;;;;;;;2.17;0.60;;;;;;;8.85;53.66;101947.16;2042472;28;20307;-67
2022/04/28 02:26:41;;;;;;;2.20;0.57;;;;;;;8.87;53.22;101937.03;2047526;28;20326;-67
2022/04/28 02:27:42;;;;;;;1.67;0.60;;;;;;;8.92;53.37;101941.69;2050917;28;21018;-67
2022/04/28 02:28:52;;;;;;;0.65;0.50;;;;;;;8.92;53.21;101944.38;2051065;28;20294;-67
2022/04/28 02:29:55;;;;;;;2.63;0.60;;;;;;;8.89;53.34;101934.94;2047670;28;20295;-67
2022/04/28 02:30:57;;;;;;;2.03;0.55;;;;;;;8.85;53.48;101939.13;2042543;28;20315;-67
2022/04/28 02:32:01;;;;;;;2.30;0.60;;;;;;;8.85;53.79;101936.44;2038327;29;20368;-67
2022/04/28 02:33:11;;;;;;;2.30;0.60;;;;;;;8.85;53.63;101939.13;2040744;28;20303;-68
2022/04/28 02:34:31;;;;;;;1.83;0.60;;;;;;;8.77;53.71;101937.63;2049691;28;20734;-67
2022/04/28 02:35:39;;;;;;;3.15;0.60;;;;;;;8.77;53.73;101942.16;2047981;28;20675;-68
2022/04/28 02:36:42;;;;;;;1.60;0.60;;;;;;;8.81;54.26;101944.16;2050637;28;20294;-67
2022/04/28 02:37:47;;;;;;;4.03;0.82;;;;;;;8.84;54.04;101942.88;2057491;28;20300;-70
2022/04/28 02:38:54;;;;;;;1.60;0.60;;;;;;;8.84;53.67;101936.69;2057566;28;20647;-70
2022/04/28 02:39:58;;;;;;;1.77;0.63;;;;;;;8.85;53.78;101943.69;2051079;28;20754;-70
2022/04/28 02:41:04;;;;;;;1.67;0.93;;;;;;;8.84;53.72;101940.19;2051460;28;22075;-68
2022/04/28 02:42:09;;;;;;;1.17;0.60;;;;;;;8.84;53.75;101942.88;2059343;28;20298;-68
2022/04/28 02:43:15;;;;;;;1.27;0.47;;;;;;;8.85;53.86;101941.00;2043743;28;20294;-68
2022/04/28 02:44:20;;;;;;;1.85;0.52;;;;;;;8.86;53.39;101946.16;2048125;28;20327;-68
2022/04/28 02:45:26;;;;;;;3.17;0.70;;;;;;;8.88;53.45;101938.66;2047147;28;20331;-67
2022/04/28 02:46:31;;;;;;;4.72;0.80;;;;;;;8.90;53.68;101944.63;2038493;28;20299;-67
2022/04/28 02:47:42;;;;;;;3.22;0.68;;;;;;;8.87;53.74;101939.72;2048239;28;20759;-67
2022/04/28 02:48:46;;;;;;;2.35;0.60;;;;;;;8.88;53.76;101944.03;2036640;28;20322;-67
2022/04/28 02:49:51;;;;;;;1.83;0.75;;;;;;;8.88;53.85;101937.84;2045873;28;20291;-68
2022/04/28 02:50:59;;;;;;;2.30;0.90;;;;;;;8.88;53.65;101935.97;2051041;28;20297;-67
2022/04/28 02:52:04;;;;;;;2.85;1.00;;;;;;;8.90;53.71;101936.56;2028580;29;20634;-67
2022/04/28 02:53:07;;;;;;;3.78;0.80;;;;;;;8.88;53.61;101938.66;2040232;28;20771;-67
2022/04/28 02:54:22;;;;;;;1.35;0.88;;;;;;;8.84;53.25;101942.06;2053871;28;20710;-67
2022/04/28 02:55:24;;;;;;;2.53;0.77;;;;;;;8.76;53.96;101946.72;2051644;28;20956;-68
2022/04/28 02:56:32;;;;;;;3.10;0.80;;;;;;;8.79;53.68;101934.69;2054522;28;20283;-67
2022/04/28 02:57:43;;;;;;;3.80;0.90;;;;;;;8.75;53.73;101936.22;2033258;29;20295;-67
2022/04/28 02:58:50;;;;;;;1.90;0.88;;;;;;;8.75;53.70;101945.06;2042688;28;20941;-68
2022/04/28 02:59:52;;;;;;;2.80;0.80;;;;;;;8.72;54.28;101942.03;2055347;28;20678;-68
2022/04/28 03:00:56;;;;;;;2.42;0.80;;;;;;;8.71;53.94;101943.09;2059482;28;20301;-68
2022/04/28 03:02:00;;;;;;;2.08;0.80;;;;;;;8.70;54.31;101947.66;2054080;28;20305;-69
2022/04/28 03:03:02;;;;;;;0.98;0.88;;;;;;;8.68;53.93;101947.06;2043132;29;20306;-68
2022/04/28 03:04:12;;;;;;;1.95;0.52;;;;;;;8.68;54.03;101943.56;2043192;28;20291;-68
2022/04/28 03:05:15;;;;;;;1.10;0.60;;;;;;;8.71;54.29;101943.09;2060374;28;20369;-68
2022/04/28 03:11:53;;;;;;;2.20;0.65;;;;;;;8.72;54.16;101939.34;2064284;28;20676;-68
2022/04/28 03:12:56;;;;;;;3.00;0.80;;;;;;;8.73;54.29;101940.97;2058840;28;20277;-67
2022/04/28 03:14:06;;;;;;;4.18;0.93;;;;;;;8.73;54.55;101946.34;2051611;28;20355;-68
2022/04/28 03:15:09;;;;;;;3.28;0.70;;;;;;;8.75;54.10;101944.25;2057096;28;20294;-67
2022/04/28 03:16:17;;;;;;;3.47;0.77;;;;;;;8.77;53.86;101942.16;2058622;28;20788;-67
2022/04/28 03:17:29;;;;;;;1.30;0.70;;;;;;;8.75;54.13;101946.94;2059176;28;20301;-68
2022/04/28 03:18:34;;;;;;;1.75;0.60;;;;;;;8.72;54.52;101944.72;2037347;28;20295;-68
2022/04/28 03:19:39;;;;;;;1.40;0.63;;;;;;;8.72;54.34;101940.16;2035168;28;20299;-68
2022/04/28 03:20:43;;;;;;;5.70;0.88;;;;;;;8.75;54.26;101938.91;2047198;28;20301;-67
2022/04/28 03:21:51;;;;;;;3.65;0.80;;;;;;;8.74;54.60;101937.28;2054740;28;20306;-67
2022/04/28 03:22:56;;;;;;;3.75;0.80;;;;;;;8.74;54.59;101940.75;2050741;28;20034;-67
2022/04/28 03:24:00;;;;;;;1.90;1.13;;;;;;;8.74;54.36;101930.03;2044771;28;20667;-68
2022/04/28 03:25:05;;;;;;;2.15;0.70;;;;;;;8.74;54.37;101937.28;2047723;28;20310;-67
2022/04/28 03:26:07;;;;;;;1.02;0.60;;;;;;;8.78;54.66;101938.44;2054717;28;20294;-67
2022/04/28 03:27:12;;;;;;;2.25;0.77;;;;;;;8.82;54.32;101943.09;2062103;28;20340;-67
2022/04/28 03:28:15;;;;;;;4.78;0.70;;;;;;;8.85;54.39;101944.50;2065406;28;20289;-67
2022/04/28 03:29:17;;;;;;;2.25;0.80;;;;;;;8.88;54.24;101937.84;2046178;29;20294;-67
2022/04/28 03:30:19;;;;;;;4.40;0.70;;;;;;;8.91;54.31;101938.19;2023416;29;20301;-67
2022/04/28 03:31:41;;;;;;;4.03;0.85;;;;;;;8.92;54.03;101937.16;2031493;29;20279;-67
2022/04/28 03:33:05;;;;;;;2.47;0.52;;;;;;;8.97;53.80;101942.63;2040827;28;20315;-67
2022/04/28 03:34:07;;;;;;;2.10;0.70;;;;;;;8.97;53.72;101948.00;2047710;28;20349;-67
2022/04/28 03:35:12;;;;;;;2.05;0.60;;;;;;;9.01;53.58;101940.28;2061944;28;20293;-67
2022/04/28 03:37:47;;;;;;;2.33;0.63;;;;;;;9.07;53.41;101941.22;2052123;28;20289;-66
2022/04/28 03:38:53;;;;;;;3.42;0.80;;;;;;;9.01;53.68;101946.47;2046651;28;20302;-67
2022/04/28 03:39:55;;;;;;;5.72;0.90;;;;;;;8.95;53.91;101939.38;2046843;28;20650;-67
2022/04/28 03:40:57;;;;;;;3.97;0.70;;;;;;;8.94;53.76;101940.41;2050535;28;20294;-66
2022/04/28 03:41:59;;;;;;;3.08;0.98;;;;;;;8.93;53.68;101933.44;2057945;28;20825;-67
2022/04/28 03:43:03;;;;;;;1.92;0.80;;;;;;;8.95;53.96;101939.38;2046064;29;20299;-66
2022/04/28 03:44:05;;;;;;;2.30;0.80;;;;;;;8.95;53.83;101943.91;2039437;28;20375;-67
2022/04/28 03:45:11;;;;;;;2.28;0.70;;;;;;;8.96;54.11;101941.00;2046379;29;20322;-67
2022/04/28 03:46:18;;;;;;;1.20;0.75;;;;;;;9.01;54.05;101941.09;2048778;28;20305;-67
2022/04/28 03:47:30;;;;;;;1.63;0.70;;;;;;;9.03;53.85;101941.69;2046857;28;20054;-67
2022/04/28 03:48:37;;;;;;;3.38;0.80;;;;;;;9.02;53.96;101940.06;2038518;28;20296;-68
2022/04/28 03:49:39;;;;;;;2.63;0.75;;;;;;;9.03;53.45;101946.25;2051311;28;20286;-67
2022/04/28 03:50:43;;;;;;;2.50;0.63;;;;;;;9.03;53.38;101946.25;2054115;28;20313;-67
2022/04/28 03:51:46;;;;;;;2.33;0.70;;;;;;;9.04;52.99;101943.31;2054140;28;20302;-67
2022/04/28 03:52:49;;;;;;;3.30;0.77;;;;;;;9.07;52.81;101947.41;2046833;28;20295;-67
2022/04/28 03:53:50;;;;;;;2.60;0.60;;;;;;;9.08;52.59;101943.69;2042477;28;20291;-68
2022/04/28 03:54:54;;;;;;;3.33;0.80;;;;;;;9.11;52.27;101942.38;2046390;28;20299;-68
2022/04/28 03:56:03;;;;;;;1.25;0.50;;;;;;;9.12;52.33;101954.78;2043131;28;20751;-67
2022/04/28 03:57:04;;;;;;;2.40;0.70;;;;;;;9.11;52.60;101947.75;2046444;28;20307;-66
2022/04/28 03:58:13;;;;;;;2.70;0.60;;;;;;;9.11;52.60;101947.75;2024692;29;20296;-66
2022/04/28 03:59:15;;;;;;;1.27;0.60;;;;;;;9.11;52.58;101943.22;2040755;28;20294;-67
2022/04/28 04:00:48;;;;;;;2.72;0.70;;;;;;;9.11;52.71;101948.59;2043244;29;20770;-67
2022/04/28 04:01:57;;;;;;;2.35;0.60;;;;;;;9.21;52.56;101942.63;2043637;28;20299;-67
2022/04/28 04:02:59;;;;;;;1.27;0.55;;;;;;;9.31;52.28;101945.53;2039477;28;20345;-68
2022/04/28 04:04:06;;;;;;;6.40;0.70;;;;;;;9.43;51.93;101956.25;2044432;28;20298;-68
2022/04/28 04:05:11;;;;;;;4.72;0.50;;;;;;;9.51;52.07;101950.50;2059889;28;20765;-68
2022/04/28 04:06:18;;;;;;;2.25;0.60;;;;;;;9.56;51.85;101950.63;2054912;28;20716;-68
2022/04/28 04:07:43;;;;;;;2.33;0.47;;;;;;;9.58;51.30;101945.00;2040769;28;20295;-68
2022/04/28 04:08:59;;;;;;;3.47;0.77;;;;;;;9.60;51.53;101949.06;2053553;28;20682;-68
2022/04/28 04:10:01;;;;;;;3.20;0.73;;;;;;;9.58;51.42;101948.50;2045812;28;20039;-68
2022/04/28 04:11:15;;;;;;;0.80;0.50;;;;;;;9.58;51.23;101947.69;2041759;28;20302;-67
2022/04/28 04:12:18;;;;;;;1.67;0.68;;;;;;;9.56;52.15;101950.63;2054580;28;20313;-67
2022/04/28 04:13:41;;;;;;;1.25;0.50;;;;;;;9.64;51.52;101944.84;2065023;28;20288;-68
2022/04/28 04:14:44;;;;;;;5.25;0.80;;;;;;;9.68;51.78;101945.22;2060337;28;20320;-67
2022/04/28 04:15:45;;;;;;;5.20;0.75;;;;;;;9.69;51.79;101944.97;2063791;28;20805;-68
2022/04/28 04:17:07;;;;;;;3.30;0.77;;;;;;;9.76;51.90;101947.50;2057147;28;20302;-68
2022/04/28 04:18:13;;;;;;;2.50;0.93;;;;;;;9.81;51.40;101941.44;2052626;28;20402;-67
2022/04/28 04:19:22;;;;;;;1.77;0.60;;;;;;;9.84;51.08;101949.84;2042102;28;20358;-68
2022/04/28 04:20:34;;;;;;;2.35;0.70;;;;;;;9.86;51.63;101949.56;2046421;28;20794;-69
2022/04/28 04:21:40;;;;;;;3.85;0.70;;;;;;;9.88;51.21;101953.66;2037354;29;20283;-68
2022/04/28 04:22:47;;;;;;;2.83;0.70;;;;;;;10.03;51.35;101960.41;2037793;29;20040;-68
2022/04/28 04:23:53;;;;;;;3.20;0.90;;;;;;;10.10;50.73;101953.81;2031804;28;20878;-67
2022/04/28 04:24:57;;;;;;;4.60;0.85;;;;;;;10.11;51.07;101951.94;2051420;28;20798;-67
2022/04/28 04:26:02;;;;;;;2.70;0.65;;;;;;;10.13;51.04;101963.25;2051665;28;20669;-67
2022/04/28 04:27:05;;;;;;;1.40;0.82;;;;;;;10.13;50.98;101957.88;2044413;28;20686;-68
2022/04/28 04:28:37;;;;;;;2.38;1.00;;;;;;;10.16;50.77;101952.84;2064022;28;20298;-67
2022/04/28 04:29:55;;;;;;;1.67;0.90;;;;;;;10.17;51.04;101954.47;2057603;28;20290;-67
2022/04/28 04:33:16;;;;;;;1.73;0.82;;;;;;;10.27;50.13;101961.91;2050994;28;20317;-68
2022/04/28 04:34:17;;;;;;;2.75;1.00;;;;;;;10.23;50.61;101960.75;2052881;28;20773;-68
2022/04/28 04:35:23;;;;;;;2.58;0.98;;;;;;;10.27;50.13;101961.91;2050506;28;20320;-68
2022/04/28 04:36:26;;;;;;;4.20;0.90;;;;;;;10.32;50.49;101962.03;2062082;28;20289;-68
2022/04/28 04:37:28;;;;;;;4.10;0.93;;;;;;;10.34;49.89;101967.97;2053740;28;20305;-68
2022/04/28 04:38:36;;;;;;;4.30;1.23;;;;;;;10.34;49.72;101965.28;2045533;28;20299;-68
2022/04/28 04:39:38;;;;;;;3.80;0.98;;;;;;;10.32;49.74;101962.03;2059566;28;20289;-68
2022/04/28 04:40:45;;;;;;;4.05;1.00;;;;;;;10.36;49.96;101965.03;2053457;28;20291;-68
2022/04/28 04:41:49;;;;;;;4.72;1.50;;;;;;;10.38;50.17;101961.06;2051824;28;20603;-68
2022/04/28 04:42:52;;;;;;;2.05;1.10;;;;;;;10.37;49.81;101967.50;2046752;28;20317;-68
2022/04/28 04:43:57;;;;;;;3.67;1.40;;;;;;;10.42;50.21;101958.69;2039662;28;20733;-68
2022/04/28 04:44:59;;;;;;;5.07;1.48;;;;;;;10.46;50.44;101961.72;2052972;28;20709;-67
2022/04/28 04:46:16;;;;;;;3.55;1.40;;;;;;;10.49;50.03;101966.59;2061650;28;20316;-69
2022/04/28 04:47:20;;;;;;;4.30;1.50;;;;;;;10.43;50.41;101958.47;2059651;28;20297;-67
2022/04/28 04:48:42;;;;;;;4.85;1.55;;;;;;;10.40;50.23;101961.63;2057675;28;20298;-67
2022/04/28 04:50:07;;;;;;;3.83;1.88;;;;;;;10.35;50.61;101964.22;2060378;28;21119;-67
2022/04/28 04:51:17;;;;;;;2.47;1.48;;;;;;;10.34;49.69;101970.66;2043460;29;20378;-67
2022/04/28 04:52:41;;;;;;;3.70;1.55;;;;;;;10.35;49.78;101968.78;2045783;28;20301;-68
2022/04/28 04:53:50;;;;;;;6.30;1.60;;;;;;;10.35;50.46;101971.47;2048682;28;20290;-68
2022/04/28 04:54:52;;;;;;;4.22;1.80;;;;;;;10.34;50.69;101967.97;2042858;28;20299;-67
2022/04/28 04:55:55;;;;;;;5.85;2.15;;;;;;;10.31;50.15;101968.47;2047162;28;20766;-68
2022/04/28 04:57:06;;;;;;;4.95;1.73;;;;;;;10.32;50.64;101970.09;2042913;28;20295;-67
2022/04/28 04:58:09;;;;;;;8.88;1.80;;;;;;;10.41;50.53;101967.81;2039887;28;20326;-68
2022/04/28 04:59:11;;;;;;;5.32;1.70;;;;;;;10.51;49.71;101972.56;2045901;28;20307;-69
2022/04/28 05:00:16;;;;;;;4.55;1.67;;;;;;;10.58;50.16;101973.22;2036246;29;20673;-69
2022/04/28 05:01:42;;;;;;;3.70;1.90;;;;;;;10.68;49.78;101970.69;2049506;28;20298;-68
2022/04/28 05:03:11;;;;;;;5.85;2.05;;;;;;;10.73;49.51;101973.47;2053296;28;20301;-69
2022/04/28 05:04:35;;;;;;;6.40;2.28;;;;;;;10.80;49.36;101976.78;2052114;28;20290;-69
2022/04/28 05:06:09;;;;;;;7.25;2.33;;;;;;;10.80;49.65;101975.97;2058339;28;20301;-68
2022/04/28 05:07:30;;;;;;;6.82;2.78;;;;;;;10.73;50.09;101976.16;2063110;28;20724;-68
2022/04/28 05:08:37;;;;;;;5.40;2.60;;;;;;;10.77;49.21;101979.16;2061629;28;20293;-68
2022/04/28 05:09:45;;;;;;;8.20;2.58;;;;;;;10.78;49.59;101978.94;2054589;28;20310;-68
2022/04/28 05:10:51;;;;;;;3.58;2.00;;;;;;;10.71;49.67;101972.88;2057073;28;20732;-69
2022/04/28 05:11:56;;;;;;;7.10;2.20;;;;;;;10.67;49.65;101977.13;2050503;28;20779;-69
2022/04/28 05:13:09;;;;;;;4.60;2.15;;;;;;;10.67;49.56;101971.75;2045493;28;20290;-69
2022/04/28 05:14:22;;;;;;;6.70;1.92;;;;;;;10.71;49.64;101972.06;2055563;28;20300;-68
2022/04/28 05:15:27;;;;;;;4.78;2.00;;;;;;;10.79;49.44;101969.00;2046040;28;20303;-68
2022/04/28 05:16:58;;;;;;;11.10;2.08;;;;;;;10.93;49.06;101969.44;2060558;28;20293;-70
2022/04/28 05:18:22;;;;;;;9.18;3.08;;;;;;;11.04;49.14;101969.38;2055055;28;20296;-67
2022/04/28 05:19:28;;;;;;;5.82;2.30;;;;;;;11.15;48.58;101973.00;2052243;28;20297;-68
2022/04/28 05:20:31;;;;;;;4.32;2.28;;;;;;;11.39;48.40;101967.44;2054369;28;20313;-68
2022/04/28 05:21:52;;;;;;;4.38;2.05;;;;;;;11.65;47.55;101972.06;2049834;28;20519;-68
2022/04/28 05:23:10;;;;;;;6.47;2.25;;;;;;;12.20;47.11;101968.41;2053870;28;20290;-68
2022/04/28 05:24:51;;;;;;;5.32;1.83;;;;;;;13.77;43.81;101968.91;2052764;28;20290;-68
2022/04/28 05:26:25;;;;;;;11.32;2.50;;;;;;;14.75;41.98;101965.28;2058124;28;20286;-68
2022/04/28 05:28:02;;;;;;;8.80;2.50;;;;;;;15.38;40.48;101964.88;2060211;28;20867;-69
2022/04/28 05:29:30;;;;;;;8.40;2.63;;;;;;;15.98;39.43;101957.56;2056062;28;20061;-67
2022/04/28 05:30:55;;;;;;;9.32;2.75;;;;;;;16.43;38.44;101963.78;2040611;29;20291;-68
2022/04/28 05:32:20;;;;;;;7.20;2.15;;;;;;;17.08;37.24;101968.91;2050608;28;20306;-68
2022/04/28 05:33:51;;;;;;;11.10;2.60;;;;;;;17.54;35.73;101966.50;2069688;28;20280;-68
2022/04/28 05:35:00;;;;;;;5.40;2.60;;;;;;;17.93;35.51;101960.00;2058332;28;20296;-68
2022/04/28 05:36:09;;;;;;;9.57;2.72;;;;;;;18.08;34.80;101969.88;2050493;28;20936;-67
2022/04/28 05:38:18;;;;;;;6.28;2.20;;;;;;;17.81;35.39;101968.63;2123466;27;20122;-66